Airfield :
LOGIN :

Register | Disclaimer

   EN    FR    IT 

 










Legend :    VFR   Marginal VFR   IFR   Intensive IFR   Very Intensive IFR
Visi :
Ceiling :
>= 8 km
>= 3000ft
5 to 8 km
1000 to 3000 ft
1500m to 5 km
500 to 1000 ft
800 to 1500m
200 to 500 ft
< 800m
< 200 ft
Symbols :   Thunderstorms  Fog  Heavy snow  Heavy precipitations  Wind > 20 kt
SIGMETs :     Misc.  Thunderstorms  Icing  Turbulence  Mountain Waves  Volcanic Ashes







- Airport Elevation : 526 ft
- IATA code : LTN
- Download approach charts


EGGW - London Luton

CURRENT METAR :
  • 192150Z AUTO 23007KT 3300 DZ BKN005 OVC028 15/14 Q1014

EXPIRED METARs :
  • 192120Z AUTO 23007KT 3900 -RADZ SCT008 BKN014 OVC025 15/14 Q1014
  • 192050Z AUTO 23010KT 9999 OVC026 15/14 Q1014
  • 192020Z AUTO 24012KT 8000 -RA BKN006 BKN025 OVC030 15/14 Q1013 REDZ
  • 191950Z AUTO 24012KT 3400 DZ BKN005 BKN017 OVC022 15/15 Q1013
  • 191920Z AUTO 25017KT 5000 -RADZ SCT010 BKN014 16/15 Q1013

TAF AMD TAF EGGW
Valid from the 19 at 22:00 until the 20 at 18:00 UTC


192203Z 1922/2018 25015KT 9999 SCT030
BECMG 1922/1924 19005KT
TEMPO 1922/2005 3000 RADZ BKN004
BECMG 2003/2006 19015KT
TEMPO 2005/2010 7000 -RA BKN009
TEMPO 2007/2018 20018G28KT
PROB30
TEMPO 2016/2018 21022G38KT
ATIS : +44 1582 395 204
No reported NOTAMs for that airfield.
2 SIGMETs reported for the London FIR (EGTT) :
 
Severe turbulence
EGTT SIGMET 15 VALID 192132/200100 EGRR
EGTT LONDON FIR SEV TURB FCST NW OF LINE N5355 W00530 - N5500 E00000 SFC/FL060 MOV N 05KT WKN=
Severe mountain waves
EGTT SIGMET 14 VALID 192100/200100 EGRR
EGTT LONDON FIR SEV MTW FCST WI N5500 E00020 - N5347 E00134 - N5220 W00344 - N5357 W00530 - N5500 W00530 - N5500 E00020 FL030/250 STNR NC=



MET'MAP, your aeronautical weather chart ! - Copyright ORBIFLY December 2007 - Disclaimer

ORBIFLY MET'MAP TEAM :

Programming & Development : Alexandra Zaïnal
Concept & Development : Baudouin d'Aumeries
Co-Development & Prog : Marc-Olivier Méhu
Technical & hardware support : Manuel Goepfert

Contact : metmap@orbifly.com




SOURCES & CREDITS :

   NOAA